Flight Track Log - Related Links

Times and Time Zones

All times are in EDT time to prevent confusion due to time zone crossing. See the TCF3494 flight status page for this flight to view local times or setup timezone preferences in your user account.

Time Position Orientation Groundspeed Altitude Reporting Facility
EDT Latitude Longitude Course Direction KTS MPH feet Rate Location/Type
Sun 09:37:52 PM 41.9167 -87.8667 90° East 190 219 3,800  Level Chicago TRACON
Sun 09:38:20 PM 41.9083 -87.8319 108° East 198 228 4,700 809 Climbing Chicago Center
Sun 09:39:00 PM 41.9567 -87.4330 98° East  Level FlightAware Approximate
Sun 09:39:21 PM 41.9061 -87.7339 92° East 259 298 5,000  Level Chicago Center
Sun 09:40:00 PM 41.9437 -87.2781 95° East  Level FlightAware Approximate
Sun 09:40:23 PM 41.9128 -87.6339 85° East 269 310 6,100  Level Chicago Center
Sun 09:41:00 PM 41.9333 -87.1228 90° East  Level FlightAware Approximate
Sun 09:41:25 PM 41.9192 -87.5328 85° East 272 313 20,100  Level Chicago Center
Sun 09:42:00 PM 41.9333 -86.9669 90° East  Level FlightAware Approximate
Sun 09:42:27 PM 41.9258 -87.4214 85° East 297 342 12,000  Level Chicago Center
Sun 09:43:00 PM 41.9333 -86.8111 90° East  Level FlightAware Approximate
Sun 09:43:29 PM 41.9347 -87.2775 85° East 319 367 14,500  Level Chicago Center
Sun 09:44:31 PM 41.9433 -87.1392 85° East 364 419 16,600 2,129 Climbing Chicago Center
Sun 09:45:33 PM 41.9486 -86.9969 87° East 378 435 18,900 1,951 Climbing Chicago Center
Sun 09:46:34 PM 41.9506 -86.8475 89° East 394 453 20,600 1,756 Climbing Chicago Center
Sun 09:47:36 PM 41.9511 -86.6861 90° East 419 482 22,500 1,790 Climbing Chicago Center
Sun 09:48:38 PM 41.9525 -86.5264 89° East 427 491 24,300 1,610 Climbing Chicago Center
Sun 09:49:39 PM 41.9539 -86.3622 89° East 438 504 25,800 1,317 Climbing Chicago Center
Sun 09:50:41 PM 41.9536 -86.1928 90° East 450 518 27,000 1,306 Climbing Chicago Center
Sun 09:51:43 PM 41.9344 -85.9894 97° East 458 527 28,500 1,415 Climbing Chicago Center
Sun 09:52:44 PM 41.9186 -85.8186 97° East 460 529 29,900 1,171 Climbing Chicago Center
Sun 09:53:46 PM 41.9014 -85.6458 98° East 464 534 30,900 1,113 Climbing Chicago Center
Sun 09:54:48 PM 41.8861 -85.4700 97° East 469 540 32,200 1,317 Climbing Chicago Center
Sun 09:55:49 PM 41.8694 -85.2950 97° East 467 537 33,600 1,268 Climbing Chicago Center
Sun 09:56:51 PM 41.8519 -85.1247 98° East 458 527 34,800 683 Climbing Chicago Center
Sun 09:57:52 PM 41.8344 -84.9525 98° East 465 535 35,000 98 Climbing Chicago Center
Sun 09:58:54 PM 41.8153 -84.7761 98° East 476 548 35,000  Level Chicago Center
Sun 09:59:55 PM 41.7961 -84.5994 98° East 478 550 35,000  Level Chicago Center
Sun 10:00:43 PM 41.7864 -84.4489 95° East 472 543 35,000  Level Cleveland Center
Sun 10:01:43 PM 41.7697 -84.2528 96° East 483 556 35,000  Level Cleveland Center
Sun 10:02:43 PM 41.7567 -84.0739 96° East 483 556 35,000  Level Cleveland Center
Sun 10:03:43 PM 41.7456 -83.8897 95° East 488 562 35,000  Level Cleveland Center
Sun 10:04:43 PM 41.7317 -83.7108 96° East 488 562 35,000  Level Cleveland Center
Sun 10:05:43 PM 41.7219 -83.5294 94° East 483 556 35,000  Level Cleveland Center
Sun 10:06:43 PM 41.7094 -83.3675 96° East 488 562 35,000  Level Cleveland Center
Sun 10:07:43 PM 41.6969 -83.1833 95° East 488 562 35,000  Level Cleveland Center
Sun 10:08:43 PM 41.6822 -83.0019 96° East 483 556 35,000  Level Cleveland Center
Sun 10:09:43 PM 41.6692 -82.8181 95° East 483 556 35,000  Level Cleveland Center
Sun 10:10:43 PM 41.6539 -82.6369 96° East 483 556 35,000  Level Cleveland Center
Sun 10:11:43 PM 41.6386 -82.4364 96° East 483 556 35,000  Level Cleveland Center
Sun 10:12:43 PM 41.6267 -82.2556 95° East 489 563 35,000  Level Cleveland Center
Sun 10:13:43 PM 41.6106 -82.0717 97° East 489 563 35,000  Level Cleveland Center
Sun 10:14:43 PM 41.5961 -81.8881 96° East 489 563 35,000  Level Cleveland Center
Sun 10:15:43 PM 41.5814 -81.7017 96° East 497 572 35,000  Level Cleveland Center
Sun 10:16:43 PM 41.5642 -81.5350 98° East 502 578 35,000  Level Cleveland Center
Sun 10:17:43 PM 41.5489 -81.3544 96° East 502 578 35,000  Level Cleveland Center
Sun 10:18:43 PM 41.5311 -81.1711 97° East 502 578 35,000  Level Cleveland Center
Sun 10:19:43 PM 41.5153 -80.9853 96° East 502 578 35,000  Level Cleveland Center
Sun 10:20:43 PM 41.4969 -80.7994 97° East 503 579 35,000  Level Cleveland Center
Sun 10:21:43 PM 41.4783 -80.5997 97° East 503 579 35,000  Level Cleveland Center
Sun 10:22:43 PM 41.4617 -80.4197 97° East 503 579 35,000  Level Cleveland Center
Sun 10:23:43 PM 41.4444 -80.2314 97° East 503 579 35,000  Level Cleveland Center
Sun 10:24:43 PM 41.4272 -80.0681 98° East 503 579 35,000  Level Cleveland Center
Sun 10:25:43 PM 41.4056 -79.8856 99° East 503 579 35,000  Level Cleveland Center
Sun 10:26:43 PM 41.3875 -79.7003 97° East 503 579 35,000  Level Cleveland Center
Sun 10:27:43 PM 41.3692 -79.5125 97° East 509 586 35,000  Level Cleveland Center
Sun 10:28:43 PM 41.3508 -79.3300 98° East 503 579 35,000  Level Cleveland Center
Sun 10:29:43 PM 41.3297 -79.1425 98° East 503 579 35,000  Level Cleveland Center
Sun 10:30:43 PM 41.3086 -78.9578 99° East 503 579 35,000  Level Cleveland Center
Sun 10:31:43 PM 41.2889 -78.7675 98° East 508 585 35,000  Level Cleveland Center
Sun 10:32:43 PM 41.2692 -78.5803 98° East 508 585 35,000  Level Cleveland Center
Sun 10:33:53 PM 41.2400 -78.3456 99° East 500 575 35,000  Level New York Center
Sun 10:34:53 PM 41.2167 -78.1553 99° East 511 588 35,000  Level New York Center
Sun 10:35:53 PM 41.1925 -77.9706 100° East 511 588 35,000  Level New York Center
Sun 10:36:54 PM 41.1706 -77.7836 99° East 511 588 35,000  Level New York Center
Sun 10:37:55 PM 41.1461 -77.5964 100° East 511 588 35,000  Level New York Center
Sun 10:38:55 PM 41.1231 -77.4122 99° East 511 588 35,000 -1,190 Level New York Center
Sun 10:39:56 PM 41.0997 -77.2336 100° East 504 580 32,600 -2,521 Descending New York Center
Sun 10:40:54 PM 41.0722 -77.0464 101° East 504 580 30,000 -2,667 Descending New York Center
Sun 10:41:53 PM 41.0481 -76.8681 100° East 504 580 27,400 -2,571 Descending New York Center
Sun 10:42:53 PM 41.0236 -76.6953 101° East 488 562 24,900 -2,361 Descending New York Center
Sun 10:43:55 PM 40.9919 -76.5358 105° East 466 536 22,600 -2,231 Descending New York Center
Sun 10:44:54 PM 40.9550 -76.3897 108° East 437 503 20,400 -2,168 Descending New York Center
Sun 10:45:54 PM 40.9258 -76.2583 106° East 420 483 18,300 -1,884 Descending New York Center
Sun 10:46:55 PM 40.8906 -76.1183 108° East 410 472 16,600 -1,488 Descending New York Center
Sun 10:47:55 PM 40.8592 -75.9814 107° East 399 459 15,300 -1,475 Descending New York Center
Sun 10:48:53 PM 40.8200 -75.8303 109° East 392 451 13,700 -1,160 Descending New York Center
Sun 10:49:54 PM 40.7881 -75.6989 108° East 392 451 13,000 -347 Descending New York Center
Sun 10:50:54 PM 40.7517 -75.5675 110° East 386 444 13,000  Level New York Center
Sun 10:51:53 PM 40.7147 -75.4528 113° Southeast 378 435 13,000  Level New York Center
Sun 10:52:54 PM 40.6717 -75.3267 114° Southeast 378 435 13,000 -400 Level New York Center
Sun 10:53:53 PM 40.6269 -75.1869 113° Southeast 378 435 12,200 -1,210 Descending New York Center
Sun 10:54:53 PM 40.5914 -75.0756 113° Southeast 378 435 10,600 -1,082 Descending New York Center
Sun 10:55:55 PM 40.5522 -74.9500 112° Southeast 373 429 10,000 -327 Descending New York Center
Sun 10:56:43 PM 40.5167 -74.8333 112° Southeast 369 425 10,000  Level New York TRACON
Sun 10:57:43 PM 40.4833 -74.7000 108° East 367 422 10,000  Level New York TRACON
Sun 10:58:43 PM 40.4333 -74.5833 119° Southeast 369 425 10,000  Level New York TRACON
Sun 10:59:43 PM 40.4500 -74.4500 81° East 347 399 10,000 -700 Level New York TRACON
Sun 11:00:43 PM 40.4833 -74.3500 66° East 305 351 8,600 -1,579 Descending New York TRACON
Sun 11:01:37 PM 40.5000 -74.2500 78° East 301 346 7,000 -1,211 Descending New York TRACON
Sun 11:02:37 PM 40.5333 -74.1500 66° East 294 338 6,300 -1,150 Descending New York TRACON
Sun 11:03:37 PM 40.5833 -74.0667 52° Northeast 289 333 4,700 -1,140 Descending New York TRACON
Sun 11:04:38 PM 40.6500 -74.0500 11° North 270 311 4,000 -347 Descending New York TRACON
Sun 11:05:38 PM 40.7333 -74.0167 17° North 277 319 4,000 -500 Level New York TRACON
Sun 11:06:38 PM 40.8000 -73.9833 21° North 268 308 3,000 -500 Descending New York TRACON
Sun 11:07:38 PM 40.8500 -73.9333 37° Northeast 215 247 3,000 -200 Level New York TRACON
Sun 11:08:38 PM 40.8833 -73.8833 49° Northeast 194 223 2,600 -500 Descending New York TRACON
Sun 11:09:38 PM 40.8833 -73.8167 90° East 200 230 2,000 -600 Descending New York TRACON

Login

Don't have an account? Register now (free) for customized features, flight alerts, and more!